sensor_id;sensor_type;location;lat;lon;timestamp;pressure;altitude;pressure_sealevel;temperature;humidity
5550;BME280;2798;42.716;23.256;2022-10-16T00:00:36;95358.03;;;11.57;77.34
5550;BME280;2798;42.716;23.256;2022-10-16T00:03:05;95356.47;;;11.68;76.41
5550;BME280;2798;42.716;23.256;2022-10-16T00:05:31;95363.47;;;11.53;77.42
5550;BME280;2798;42.716;23.256;2022-10-16T00:07:57;95360.50;;;11.46;77.31
5550;BME280;2798;42.716;23.256;2022-10-16T00:10:22;95361.81;;;11.38;77.44
5550;BME280;2798;42.716;23.256;2022-10-16T00:12:48;95367.56;;;11.29;78.19
5550;BME280;2798;42.716;23.256;2022-10-16T00:15:13;95379.31;;;11.33;77.51
5550;BME280;2798;42.716;23.256;2022-10-16T00:17:39;95370.13;;;11.16;78.41
5550;BME280;2798;42.716;23.256;2022-10-16T00:20:05;95367.09;;;11.09;78.50
5550;BME280;2798;42.716;23.256;2022-10-16T00:22:31;95380.19;;;11.06;78.53
5550;BME280;2798;42.716;23.256;2022-10-16T00:24:56;95380.53;;;11.15;77.65
5550;BME280;2798;42.716;23.256;2022-10-16T00:27:22;95385.63;;;11.02;78.03
5550;BME280;2798;42.716;23.256;2022-10-16T00:29:51;95375.53;;;10.98;77.88
5550;BME280;2798;42.716;23.256;2022-10-16T00:32:17;95394.00;;;11.05;78.50
5550;BME280;2798;42.716;23.256;2022-10-16T00:34:43;95392.66;;;11.12;77.91
5550;BME280;2798;42.716;23.256;2022-10-16T00:37:08;95384.47;;;11.33;77.08
5550;BME280;2798;42.716;23.256;2022-10-16T00:39:34;95350.66;;;10.84;78.71
5550;BME280;2798;42.716;23.256;2022-10-16T00:41:59;95384.31;;;11.09;78.79
5550;BME280;2798;42.716;23.256;2022-10-16T00:47:17;95383.59;;;11.07;78.56
5550;BME280;2798;42.716;23.256;2022-10-16T00:49:43;95382.34;;;11.12;77.71
5550;BME280;2798;42.716;23.256;2022-10-16T00:52:10;95389.22;;;10.99;78.42
5550;BME280;2798;42.716;23.256;2022-10-16T00:54:35;95377.69;;;11.05;77.94
5550;BME280;2798;42.716;23.256;2022-10-16T00:57:04;95378.28;;;10.95;78.20
5550;BME280;2798;42.716;23.256;2022-10-16T00:59:36;95382.38;;;10.85;78.95
5550;BME280;2798;42.716;23.256;2022-10-16T01:02:05;95381.34;;;10.87;78.83
5550;BME280;2798;42.716;23.256;2022-10-16T01:04:40;95395.78;;;10.90;78.37
5550;BME280;2798;42.716;23.256;2022-10-16T01:08:08;95377.41;;;10.82;78.74
5550;BME280;2798;42.716;23.256;2022-10-16T01:18:33;95388.94;;;10.76;79.21
5550;BME280;2798;42.716;23.256;2022-10-16T01:34:49;95382.88;;;10.62;79.47
5550;BME280;2798;42.716;23.256;2022-10-16T01:37:24;95378.28;;;10.68;79.65
5550;BME280;2798;42.716;23.256;2022-10-16T01:39:53;95386.19;;;10.65;78.88
5550;BME280;2798;42.716;23.256;2022-10-16T01:42:24;95359.19;;;10.57;78.90
5550;BME280;2798;42.716;23.256;2022-10-16T01:44:53;95388.97;;;10.61;78.34
5550;BME280;2798;42.716;23.256;2022-10-16T01:47:22;95386.09;;;10.66;79.24
5550;BME280;2798;42.716;23.256;2022-10-16T01:49:49;95390.41;;;10.66;78.55
5550;BME280;2798;42.716;23.256;2022-10-16T01:52:19;95390.88;;;10.58;79.03
5550;BME280;2798;42.716;23.256;2022-10-16T01:54:47;95394.41;;;10.57;79.78
5550;BME280;2798;42.716;23.256;2022-10-16T01:57:15;95401.66;;;10.50;80.11
5550;BME280;2798;42.716;23.256;2022-10-16T01:59:47;95398.69;;;10.71;79.19
5550;BME280;2798;42.716;23.256;2022-10-16T02:02:15;95394.81;;;10.78;78.97
5550;BME280;2798;42.716;23.256;2022-10-16T02:05:14;95389.66;;;10.78;78.78
5550;BME280;2798;42.716;23.256;2022-10-16T02:07:41;95401.44;;;10.68;79.01
5550;BME280;2798;42.716;23.256;2022-10-16T02:10:08;95406.78;;;10.65;78.12
5550;BME280;2798;42.716;23.256;2022-10-16T02:12:35;95413.53;;;10.53;78.54
5550;BME280;2798;42.716;23.256;2022-10-16T02:15:02;95415.63;;;10.60;78.25
5550;BME280;2798;42.716;23.256;2022-10-16T02:17:28;95420.50;;;10.65;78.13
5550;BME280;2798;42.716;23.256;2022-10-16T02:19:54;95419.59;;;10.51;78.63
5550;BME280;2798;42.716;23.256;2022-10-16T02:22:27;95414.41;;;10.37;79.79
5550;BME280;2798;42.716;23.256;2022-10-16T02:24:58;95420.03;;;10.44;80.25
5550;BME280;2798;42.716;23.256;2022-10-16T02:27:55;95416.63;;;10.58;79.04
5550;BME280;2798;42.716;23.256;2022-10-16T02:30:28;95427.66;;;10.45;79.52
5550;BME280;2798;42.716;23.256;2022-10-16T02:32:56;95416.63;;;10.58;78.88
5550;BME280;2798;42.716;23.256;2022-10-16T02:35:24;95381.81;;;10.23;78.95
5550;BME280;2798;42.716;23.256;2022-10-16T02:37:50;95422.13;;;10.37;79.01
5550;BME280;2798;42.716;23.256;2022-10-16T02:40:17;95408.47;;;10.22;78.81
5550;BME280;2798;42.716;23.256;2022-10-16T02:42:43;95415.53;;;10.04;80.54
5550;BME280;2798;42.716;23.256;2022-10-16T02:45:10;95432.16;;;10.27;79.23
5550;BME280;2798;42.716;23.256;2022-10-16T02:47:36;95434.47;;;10.17;79.15
5550;BME280;2798;42.716;23.256;2022-10-16T02:50:03;95443.56;;;10.23;78.72
5550;BME280;2798;42.716;23.256;2022-10-16T02:52:28;95423.53;;;10.13;78.52
5550;BME280;2798;42.716;23.256;2022-10-16T02:54:54;95435.81;;;10.08;79.30
5550;BME280;2798;42.716;23.256;2022-10-16T02:57:19;95438.50;;;10.07;79.53
5550;BME280;2798;42.716;23.256;2022-10-16T02:59:45;95439.22;;;10.09;79.10
5550;BME280;2798;42.716;23.256;2022-10-16T03:02:10;95448.31;;;10.14;79.38
5550;BME280;2798;42.716;23.256;2022-10-16T03:04:36;95438.66;;;10.04;79.65
5550;BME280;2798;42.716;23.256;2022-10-16T03:07:01;95440.03;;;9.95;79.13
5550;BME280;2798;42.716;23.256;2022-10-16T03:09:27;95437.94;;;10.01;79.32
5550;BME280;2798;42.716;23.256;2022-10-16T03:11:52;95442.69;;;10.08;79.28
5550;BME280;2798;42.716;23.256;2022-10-16T03:14:18;95431.50;;;9.94;79.22
5550;BME280;2798;42.716;23.256;2022-10-16T03:16:43;95441.81;;;10.09;77.61
5550;BME280;2798;42.716;23.256;2022-10-16T03:19:09;95439.03;;;9.97;77.94
5550;BME280;2798;42.716;23.256;2022-10-16T03:21:34;95444.09;;;9.99;77.72
5550;BME280;2798;42.716;23.256;2022-10-16T03:23:59;95444.34;;;9.80;78.96
5550;BME280;2798;42.716;23.256;2022-10-16T03:26:25;95449.25;;;9.68;79.49
5550;BME280;2798;42.716;23.256;2022-10-16T03:28:50;95455.19;;;9.85;77.93
5550;BME280;2798;42.716;23.256;2022-10-16T03:31:16;95449.28;;;9.83;78.92
5550;BME280;2798;42.716;23.256;2022-10-16T03:33:41;95457.81;;;9.69;79.76
5550;BME280;2798;42.716;23.256;2022-10-16T03:36:07;95451.16;;;9.64;80.53
5550;BME280;2798;42.716;23.256;2022-10-16T03:38:32;95452.44;;;9.57;80.97
5550;BME280;2798;42.716;23.256;2022-10-16T03:40:57;95449.31;;;9.52;80.47
5550;BME280;2798;42.716;23.256;2022-10-16T03:43:23;95452.63;;;9.54;80.31
5550;BME280;2798;42.716;23.256;2022-10-16T03:45:50;95437.63;;;9.46;80.65
5550;BME280;2798;42.716;23.256;2022-10-16T03:48:17;95441.19;;;9.44;80.69
5550;BME280;2798;42.716;23.256;2022-10-16T03:50:42;95445.13;;;9.35;80.43
5550;BME280;2798;42.716;23.256;2022-10-16T03:53:08;95443.19;;;9.38;80.50
5550;BME280;2798;42.716;23.256;2022-10-16T03:55:34;95443.94;;;9.40;80.18
5550;BME280;2798;42.716;23.256;2022-10-16T03:58:00;95444.44;;;9.47;79.71
5550;BME280;2798;42.716;23.256;2022-10-16T04:00:26;95448.72;;;9.47;79.28
5550;BME280;2798;42.716;23.256;2022-10-16T04:02:51;95435.56;;;9.37;79.10
5550;BME280;2798;42.716;23.256;2022-10-16T04:05:16;95452.75;;;9.36;80.10
5550;BME280;2798;42.716;23.256;2022-10-16T04:07:42;95437.72;;;9.28;79.48
5550;BME280;2798;42.716;23.256;2022-10-16T04:10:08;95451.72;;;9.39;80.15
5550;BME280;2798;42.716;23.256;2022-10-16T04:12:33;95444.13;;;9.37;80.64
5550;BME280;2798;42.716;23.256;2022-10-16T04:14:58;95452.91;;;9.33;80.61
5550;BME280;2798;42.716;23.256;2022-10-16T04:17:24;95449.50;;;9.33;80.90
5550;BME280;2798;42.716;23.256;2022-10-16T04:19:49;95446.03;;;9.34;81.45
5550;BME280;2798;42.716;23.256;2022-10-16T04:22:15;95438.31;;;9.34;81.50
5550;BME280;2798;42.716;23.256;2022-10-16T04:24:40;95445.94;;;9.35;81.54
5550;BME280;2798;42.716;23.256;2022-10-16T04:27:06;95457.88;;;9.36;82.44
5550;BME280;2798;42.716;23.256;2022-10-16T04:29:31;95453.09;;;9.30;81.65
5550;BME280;2798;42.716;23.256;2022-10-16T04:31:57;95452.66;;;9.38;81.62
5550;BME280;2798;42.716;23.256;2022-10-16T04:34:22;95449.34;;;9.36;81.58
5550;BME280;2798;42.716;23.256;2022-10-16T04:36:48;95459.28;;;9.26;81.42
5550;BME280;2798;42.716;23.256;2022-10-16T04:39:16;95459.56;;;9.21;81.23
5550;BME280;2798;42.716;23.256;2022-10-16T04:41:41;95468.91;;;9.22;81.32
5550;BME280;2798;42.716;23.256;2022-10-16T04:44:07;95466.50;;;9.19;81.26
5550;BME280;2798;42.716;23.256;2022-10-16T04:46:33;95447.41;;;9.09;80.22
5550;BME280;2798;42.716;23.256;2022-10-16T04:48:58;95495.91;;;9.30;79.47
5550;BME280;2798;42.716;23.256;2022-10-16T04:51:24;95474.44;;;9.31;79.20
5550;BME280;2798;42.716;23.256;2022-10-16T04:53:50;95475.91;;;9.51;79.89
5550;BME280;2798;42.716;23.256;2022-10-16T04:56:16;95480.63;;;9.59;78.49
5550;BME280;2798;42.716;23.256;2022-10-16T04:58:42;95475.13;;;9.34;80.19
5550;BME280;2798;42.716;23.256;2022-10-16T05:01:07;95491.75;;;9.27;80.39
5550;BME280;2798;42.716;23.256;2022-10-16T05:03:33;95490.38;;;9.21;80.71
5550;BME280;2798;42.716;23.256;2022-10-16T05:05:59;95484.38;;;9.37;79.57
5550;BME280;2798;42.716;23.256;2022-10-16T05:08:25;95484.81;;;9.29;79.73
5550;BME280;2798;42.716;23.256;2022-10-16T05:10:50;95495.66;;;9.34;79.50
5550;BME280;2798;42.716;23.256;2022-10-16T05:13:16;95495.91;;;9.30;79.81
5550;BME280;2798;42.716;23.256;2022-10-16T05:15:41;95465.88;;;8.99;81.01
5550;BME280;2798;42.716;23.256;2022-10-16T05:18:06;95502.38;;;9.21;80.11
5550;BME280;2798;42.716;23.256;2022-10-16T05:20:32;95495.09;;;9.29;79.61
5550;BME280;2798;42.716;23.256;2022-10-16T05:22:57;95497.81;;;9.26;80.94
5550;BME280;2798;42.716;23.256;2022-10-16T05:25:23;95500.56;;;9.23;80.77
5550;BME280;2798;42.716;23.256;2022-10-16T05:27:49;95502.63;;;9.16;81.04
5550;BME280;2798;42.716;23.256;2022-10-16T05:30:15;95497.50;;;9.16;81.33
5550;BME280;2798;42.716;23.256;2022-10-16T05:32:41;95511.34;;;9.30;80.78
5550;BME280;2798;42.716;23.256;2022-10-16T05:35:07;95510.84;;;9.23;81.47
5550;BME280;2798;42.716;23.256;2022-10-16T05:37:33;95518.94;;;9.31;80.94
5550;BME280;2798;42.716;23.256;2022-10-16T05:39:58;95514.13;;;9.57;79.13
5550;BME280;2798;42.716;23.256;2022-10-16T05:42:24;95515.63;;;9.45;80.39
5550;BME280;2798;42.716;23.256;2022-10-16T05:44:49;95504.91;;;9.53;79.24
5550;BME280;2798;42.716;23.256;2022-10-16T05:47:14;95515.56;;;9.77;79.55
5550;BME280;2798;42.716;23.256;2022-10-16T05:49:40;95517.91;;;9.97;78.76
5550;BME280;2798;42.716;23.256;2022-10-16T05:52:06;95518.47;;;10.02;78.48
5550;BME280;2798;42.716;23.256;2022-10-16T05:54:31;95526.59;;;10.10;78.26
5550;BME280;2798;42.716;23.256;2022-10-16T05:56:57;95532.34;;;9.99;79.18
5550;BME280;2798;42.716;23.256;2022-10-16T05:59:22;95526.56;;;9.96;79.87
5550;BME280;2798;42.716;23.256;2022-10-16T06:01:48;95531.44;;;10.00;79.98
5550;BME280;2798;42.716;23.256;2022-10-16T06:04:13;95539.84;;;10.19;79.73
5550;BME280;2798;42.716;23.256;2022-10-16T06:06:39;95546.09;;;10.29;79.12
5550;BME280;2798;42.716;23.256;2022-10-16T06:09:04;95544.34;;;10.30;79.60
5550;BME280;2798;42.716;23.256;2022-10-16T06:11:31;95546.22;;;10.42;79.62
5550;BME280;2798;42.716;23.256;2022-10-16T06:13:59;95548.25;;;10.51;79.84
5550;BME280;2798;42.716;23.256;2022-10-16T06:16:27;95554.53;;;10.62;79.40
5550;BME280;2798;42.716;23.256;2022-10-16T06:18:54;95547.09;;;10.72;79.36
5550;BME280;2798;42.716;23.256;2022-10-16T06:21:23;95556.09;;;10.79;79.89
5550;BME280;2798;42.716;23.256;2022-10-16T06:23:50;95559.50;;;10.80;80.42
5550;BME280;2798;42.716;23.256;2022-10-16T06:26:18;95542.66;;;10.74;80.09
5550;BME280;2798;42.716;23.256;2022-10-16T06:28:44;95570.09;;;11.04;78.99
5550;BME280;2798;42.716;23.256;2022-10-16T06:31:10;95572.91;;;10.99;79.09
5550;BME280;2798;42.716;23.256;2022-10-16T06:33:37;95576.59;;;11.10;78.61
5550;BME280;2798;42.716;23.256;2022-10-16T06:36:11;95569.34;;;11.02;78.59
5550;BME280;2798;42.716;23.256;2022-10-16T06:38:37;95559.78;;;11.04;77.84
5550;BME280;2798;42.716;23.256;2022-10-16T06:41:04;95562.59;;;10.99;79.27
5550;BME280;2798;42.716;23.256;2022-10-16T06:43:30;95573.28;;;11.08;80.17
5550;BME280;2798;42.716;23.256;2022-10-16T06:46:04;95575.66;;;11.11;80.72
5550;BME280;2798;42.716;23.256;2022-10-16T06:48:30;95593.50;;;11.14;81.27
5550;BME280;2798;42.716;23.256;2022-10-16T06:53:21;95595.94;;;11.45;80.08
5550;BME280;2798;42.716;23.256;2022-10-16T06:55:47;95594.75;;;11.50;79.55
5550;BME280;2798;42.716;23.256;2022-10-16T06:58:12;95596.75;;;11.60;79.82
5550;BME280;2798;42.716;23.256;2022-10-16T07:00:37;95595.78;;;11.75;80.81
5550;BME280;2798;42.716;23.256;2022-10-16T07:03:03;95602.97;;;11.98;80.76
5550;BME280;2798;42.716;23.256;2022-10-16T07:05:28;95606.38;;;12.13;78.50
5550;BME280;2798;42.716;23.256;2022-10-16T07:07:54;95604.44;;;12.17;76.75
5550;BME280;2798;42.716;23.256;2022-10-16T07:10:19;95603.81;;;12.26;76.22
5550;BME280;2798;42.716;23.256;2022-10-16T07:12:45;95606.94;;;12.31;77.22
5550;BME280;2798;42.716;23.256;2022-10-16T07:15:10;95617.16;;;12.33;76.28
5550;BME280;2798;42.716;23.256;2022-10-16T07:17:35;95607.28;;;12.40;76.63
5550;BME280;2798;42.716;23.256;2022-10-16T07:20:01;95607.38;;;12.51;75.67
5550;BME280;2798;42.716;23.256;2022-10-16T07:22:28;95613.78;;;12.58;75.87
5550;BME280;2798;42.716;23.256;2022-10-16T07:24:54;95605.44;;;12.68;74.71
5550;BME280;2798;42.716;23.256;2022-10-16T07:27:19;95605.84;;;12.75;74.79
5550;BME280;2798;42.716;23.256;2022-10-16T07:29:47;95607.19;;;12.80;74.30
5550;BME280;2798;42.716;23.256;2022-10-16T07:32:12;95611.81;;;12.88;73.86
5550;BME280;2798;42.716;23.256;2022-10-16T07:34:38;95608.53;;;12.86;72.46
5550;BME280;2798;42.716;23.256;2022-10-16T07:37:03;95609.06;;;12.91;72.55
5550;BME280;2798;42.716;23.256;2022-10-16T07:39:29;95621.47;;;12.99;72.07
5550;BME280;2798;42.716;23.256;2022-10-16T07:41:54;95610.38;;;12.97;72.44
5550;BME280;2798;42.716;23.256;2022-10-16T07:44:20;95609.56;;;12.96;72.60
5550;BME280;2798;42.716;23.256;2022-10-16T07:46:45;95613.97;;;13.07;72.28
5550;BME280;2798;42.716;23.256;2022-10-16T07:49:11;95605.00;;;13.13;71.73
5550;BME280;2798;42.716;23.256;2022-10-16T07:51:37;95617.50;;;13.19;71.39
5550;BME280;2798;42.716;23.256;2022-10-16T07:54:03;95614.69;;;13.22;71.83
5550;BME280;2798;42.716;23.256;2022-10-16T07:56:30;95620.28;;;13.29;71.69
5550;BME280;2798;42.716;23.256;2022-10-16T07:58:56;95615.31;;;13.39;70.37
5550;BME280;2798;42.716;23.256;2022-10-16T08:01:21;95622.00;;;13.42;70.88
5550;BME280;2798;42.716;23.256;2022-10-16T08:03:51;95612.41;;;13.44;70.89
5550;BME280;2798;42.716;23.256;2022-10-16T08:06:17;95619.22;;;13.58;71.04
5550;BME280;2798;42.716;23.256;2022-10-16T08:08:43;95620.66;;;13.62;70.23
5550;BME280;2798;42.716;23.256;2022-10-16T08:11:09;95621.03;;;13.69;70.61
5550;BME280;2798;42.716;23.256;2022-10-16T08:13:34;95592.69;;;13.67;71.70
5550;BME280;2798;42.716;23.256;2022-10-16T08:16:00;95612.91;;;13.87;71.78
5550;BME280;2798;42.716;23.256;2022-10-16T08:18:26;95614.34;;;13.91;70.35
5550;BME280;2798;42.716;23.256;2022-10-16T08:20:59;95612.03;;;13.99;70.40
5550;BME280;2798;42.716;23.256;2022-10-16T08:23:26;95608.50;;;14.00;69.84
5550;BME280;2798;42.716;23.256;2022-10-16T08:25:52;95617.63;;;14.17;70.50
5550;BME280;2798;42.716;23.256;2022-10-16T08:28:19;95592.63;;;14.05;71.08
5550;BME280;2798;42.716;23.256;2022-10-16T08:30:44;95608.19;;;14.41;71.32
5550;BME280;2798;42.716;23.256;2022-10-16T08:33:10;95610.31;;;14.47;70.15
5550;BME280;2798;42.716;23.256;2022-10-16T08:35:36;95611.16;;;14.48;69.29
5550;BME280;2798;42.716;23.256;2022-10-16T08:38:05;95608.81;;;14.56;68.86
5550;BME280;2798;42.716;23.256;2022-10-16T08:40:33;95610.72;;;14.65;68.05
5550;BME280;2798;42.716;23.256;2022-10-16T08:48:43;95612.91;;;14.94;66.86
5550;BME280;2798;42.716;23.256;2022-10-16T08:51:13;95611.50;;;15.02;65.53
5550;BME280;2798;42.716;23.256;2022-10-16T08:54:26;95617.84;;;15.09;65.66
5550;BME280;2798;42.716;23.256;2022-10-16T08:56:57;95600.78;;;15.06;65.18
5550;BME280;2798;42.716;23.256;2022-10-16T08:59:26;95612.78;;;15.19;64.15
5550;BME280;2798;42.716;23.256;2022-10-16T09:01:52;95618.56;;;15.23;62.85
5550;BME280;2798;42.716;23.256;2022-10-16T09:07:35;95623.28;;;15.40;63.75
5550;BME280;2798;42.716;23.256;2022-10-16T09:10:22;95618.91;;;15.52;64.08
5550;BME280;2798;42.716;23.256;2022-10-16T09:13:35;95617.47;;;15.60;62.73
5550;BME280;2798;42.716;23.256;2022-10-16T09:15:52;95617.59;;;15.69;63.20
5550;BME280;2798;42.716;23.256;2022-10-16T09:21:15;95612.75;;;15.76;59.37
5550;BME280;2798;42.716;23.256;2022-10-16T09:23:43;95614.50;;;15.76;58.33
5550;BME280;2798;42.716;23.256;2022-10-16T09:26:13;95616.81;;;15.90;58.52
5550;BME280;2798;42.716;23.256;2022-10-16T09:28:39;95609.50;;;15.96;57.84
5550;BME280;2798;42.716;23.256;2022-10-16T09:31:05;95616.00;;;16.01;57.77
5550;BME280;2798;42.716;23.256;2022-10-16T09:33:35;95617.84;;;16.11;58.08
5550;BME280;2798;42.716;23.256;2022-10-16T09:36:03;95620.78;;;16.17;57.44
5550;BME280;2798;42.716;23.256;2022-10-16T09:38:34;95617.44;;;16.27;57.91
5550;BME280;2798;42.716;23.256;2022-10-16T09:41:03;95624.50;;;16.36;57.68
5550;BME280;2798;42.716;23.256;2022-10-16T09:43:39;95617.84;;;16.43;56.11
5550;BME280;2798;42.716;23.256;2022-10-16T09:46:08;95617.00;;;16.43;56.10
5550;BME280;2798;42.716;23.256;2022-10-16T09:48:48;95607.38;;;16.55;54.57
5550;BME280;2798;42.716;23.256;2022-10-16T09:51:27;95603.69;;;16.58;53.06
5550;BME280;2798;42.716;23.256;2022-10-16T09:54:19;95603.16;;;16.54;52.75
5550;BME280;2798;42.716;23.256;2022-10-16T09:56:47;95599.34;;;16.58;53.52
5550;BME280;2798;42.716;23.256;2022-10-16T09:59:21;95605.53;;;16.67;53.71
5550;BME280;2798;42.716;23.256;2022-10-16T10:01:50;95597.50;;;16.70;52.58
5550;BME280;2798;42.716;23.256;2022-10-16T10:04:20;95596.81;;;16.68;52.39
5550;BME280;2798;42.716;23.256;2022-10-16T10:06:49;95597.25;;;16.73;52.02
5550;BME280;2798;42.716;23.256;2022-10-16T10:09:25;95593.31;;;16.79;53.15
5550;BME280;2798;42.716;23.256;2022-10-16T10:12:01;95584.28;;;16.83;52.76
5550;BME280;2798;42.716;23.256;2022-10-16T10:14:35;95574.66;;;16.74;52.20
5550;BME280;2798;42.716;23.256;2022-10-16T10:19:41;95585.03;;;16.95;51.91
5550;BME280;2798;42.716;23.256;2022-10-16T10:27:58;95575.28;;;17.09;52.42
5550;BME280;2798;42.716;23.256;2022-10-16T10:33:05;95575.28;;;17.18;52.64
5550;BME280;2798;42.716;23.256;2022-10-16T10:38:17;95562.88;;;17.32;50.73
5550;BME280;2798;42.716;23.256;2022-10-16T10:43:48;95556.44;;;17.36;52.62
5550;BME280;2798;42.716;23.256;2022-10-16T10:49:54;95560.03;;;17.45;51.83
5550;BME280;2798;42.716;23.256;2022-10-16T10:52:47;95554.44;;;17.50;50.60
5550;BME280;2798;42.716;23.256;2022-10-16T11:01:38;95522.13;;;17.42;50.27
5550;BME280;2798;42.716;23.256;2022-10-16T11:07:15;95541.47;;;17.70;51.82
5550;BME280;2798;42.716;23.256;2022-10-16T11:09:47;95541.31;;;17.71;51.13
5550;BME280;2798;42.716;23.256;2022-10-16T11:12:24;95540.78;;;17.77;50.58
5550;BME280;2798;42.716;23.256;2022-10-16T11:17:40;95549.16;;;17.91;51.26
5550;BME280;2798;42.716;23.256;2022-10-16T11:20:18;95536.25;;;17.89;51.05
5550;BME280;2798;42.716;23.256;2022-10-16T11:22:55;95537.78;;;18.02;48.96
5550;BME280;2798;42.716;23.256;2022-10-16T11:25:27;95523.78;;;18.03;48.18
5550;BME280;2798;42.716;23.256;2022-10-16T11:30:49;95527.88;;;18.06;49.15
5550;BME280;2798;42.716;23.256;2022-10-16T11:35:57;95526.69;;;18.20;50.07
5550;BME280;2798;42.716;23.256;2022-10-16T11:40:58;95533.63;;;18.49;52.34
5550;BME280;2798;42.716;23.256;2022-10-16T11:43:34;95526.59;;;18.59;52.50
5550;BME280;2798;42.716;23.256;2022-10-16T11:46:10;95529.47;;;18.66;50.18
5550;BME280;2798;42.716;23.256;2022-10-16T11:48:48;95531.66;;;18.71;48.55
5550;BME280;2798;42.716;23.256;2022-10-16T11:51:35;95529.97;;;18.80;47.41
5550;BME280;2798;42.716;23.256;2022-10-16T11:56:28;95522.25;;;18.88;46.00
5550;BME280;2798;42.716;23.256;2022-10-16T11:59:06;95528.41;;;18.97;45.79
5550;BME280;2798;42.716;23.256;2022-10-16T12:01:53;95548.25;;;19.08;44.16
5550;BME280;2798;42.716;23.256;2022-10-16T12:04:43;95529.00;;;19.09;43.51
5550;BME280;2798;42.716;23.256;2022-10-16T12:07:18;95532.34;;;19.11;44.65
5550;BME280;2798;42.716;23.256;2022-10-16T12:09:46;95530.41;;;19.13;42.90
5550;BME280;2798;42.716;23.256;2022-10-16T12:12:38;95528.50;;;19.15;43.34
5550;BME280;2798;42.716;23.256;2022-10-16T12:15:31;95527.94;;;19.11;42.95
5550;BME280;2798;42.716;23.256;2022-10-16T12:17:57;95524.75;;;19.18;43.38
5550;BME280;2798;42.716;23.256;2022-10-16T12:20:29;95529.25;;;19.25;42.64
5550;BME280;2798;42.716;23.256;2022-10-16T12:23:06;95530.88;;;19.26;42.03
5550;BME280;2798;42.716;23.256;2022-10-16T12:25:39;95532.09;;;19.32;43.13
5550;BME280;2798;42.716;23.256;2022-10-16T12:28:22;95530.81;;;19.36;42.85
5550;BME280;2798;42.716;23.256;2022-10-16T12:30:56;95529.44;;;19.42;43.28
5550;BME280;2798;42.716;23.256;2022-10-16T12:33:56;95523.78;;;19.47;43.57
5550;BME280;2798;42.716;23.256;2022-10-16T12:36:34;95512.50;;;19.46;43.20
5550;BME280;2798;42.716;23.256;2022-10-16T12:39:00;95518.78;;;19.54;43.51
5550;BME280;2798;42.716;23.256;2022-10-16T12:41:34;95522.28;;;19.62;43.29
5550;BME280;2798;42.716;23.256;2022-10-16T12:44:01;95518.72;;;19.63;43.33
5550;BME280;2798;42.716;23.256;2022-10-16T12:51:53;95524.84;;;19.72;43.71
5550;BME280;2798;42.716;23.256;2022-10-16T12:54:31;95527.81;;;19.77;42.63
5550;BME280;2798;42.716;23.256;2022-10-16T12:57:24;95528.78;;;19.76;41.77
5550;BME280;2798;42.716;23.256;2022-10-16T13:05:32;95540.75;;;19.79;40.65
5550;BME280;2798;42.716;23.256;2022-10-16T13:21:49;95535.22;;;20.00;40.24
5550;BME280;2798;42.716;23.256;2022-10-16T13:29:31;95532.38;;;20.12;39.84
5550;BME280;2798;42.716;23.256;2022-10-16T13:31:59;95534.19;;;20.11;38.00
5550;BME280;2798;42.716;23.256;2022-10-16T13:34:26;95536.13;;;20.09;38.36
5550;BME280;2798;42.716;23.256;2022-10-16T13:36:53;95536.94;;;20.10;39.17
5550;BME280;2798;42.716;23.256;2022-10-16T13:39:27;95545.44;;;20.12;38.71
5550;BME280;2798;42.716;23.256;2022-10-16T13:42:05;95539.25;;;20.13;38.32
5550;BME280;2798;42.716;23.256;2022-10-16T13:44:38;95545.50;;;20.20;38.31
5550;BME280;2798;42.716;23.256;2022-10-16T13:47:05;95544.91;;;20.26;38.43
5550;BME280;2798;42.716;23.256;2022-10-16T13:49:30;95542.66;;;20.32;38.34
5550;BME280;2798;42.716;23.256;2022-10-16T13:51:58;95539.44;;;20.38;39.32
5550;BME280;2798;42.716;23.256;2022-10-16T13:54:25;95549.50;;;20.51;37.47
5550;BME280;2798;42.716;23.256;2022-10-16T13:56:52;95538.97;;;20.43;37.27
5550;BME280;2798;42.716;23.256;2022-10-16T13:59:35;95540.84;;;20.50;37.87
5550;BME280;2798;42.716;23.256;2022-10-16T14:02:08;95542.72;;;20.40;37.45
5550;BME280;2798;42.716;23.256;2022-10-16T14:04:40;95552.94;;;20.52;37.01
5550;BME280;2798;42.716;23.256;2022-10-16T14:07:14;95546.72;;;20.53;36.43
5550;BME280;2798;42.716;23.256;2022-10-16T14:09:40;95551.53;;;20.66;36.78
5550;BME280;2798;42.716;23.256;2022-10-16T14:12:11;95552.22;;;20.68;35.38
5550;BME280;2798;42.716;23.256;2022-10-16T14:14:42;95552.22;;;20.68;35.12
5550;BME280;2798;42.716;23.256;2022-10-16T14:17:16;95555.84;;;20.75;34.76
5550;BME280;2798;42.716;23.256;2022-10-16T14:19:46;95552.59;;;20.73;34.35
5550;BME280;2798;42.716;23.256;2022-10-16T14:24:57;95552.06;;;20.69;34.78
5550;BME280;2798;42.716;23.256;2022-10-16T14:27:31;95556.84;;;20.74;34.75
5550;BME280;2798;42.716;23.256;2022-10-16T14:30:23;95549.13;;;20.72;35.47
5550;BME280;2798;42.716;23.256;2022-10-16T14:33:06;95558.47;;;20.75;34.77
5550;BME280;2798;42.716;23.256;2022-10-16T14:35:44;95569.13;;;20.82;34.17
5550;BME280;2798;42.716;23.256;2022-10-16T14:38:19;95561.28;;;20.82;33.71
5550;BME280;2798;42.716;23.256;2022-10-16T14:40:48;95568.78;;;20.77;33.80
5550;BME280;2798;42.716;23.256;2022-10-16T14:43:20;95564.84;;;20.72;34.30
5550;BME280;2798;42.716;23.256;2022-10-16T14:45:51;95575.59;;;20.69;34.12
5550;BME280;2798;42.716;23.256;2022-10-16T14:48:18;95566.88;;;20.60;34.57
5550;BME280;2798;42.716;23.256;2022-10-16T14:50:44;95565.09;;;20.61;35.31
5550;BME280;2798;42.716;23.256;2022-10-16T14:53:13;95579.47;;;20.65;34.84
5550;BME280;2798;42.716;23.256;2022-10-16T14:55:39;95574.25;;;20.65;34.66
5550;BME280;2798;42.716;23.256;2022-10-16T14:58:08;95586.06;;;20.69;35.68
5550;BME280;2798;42.716;23.256;2022-10-16T15:00:35;95589.00;;;20.66;36.88
5550;BME280;2798;42.716;23.256;2022-10-16T15:03:01;95587.06;;;20.68;35.43
5550;BME280;2798;42.716;23.256;2022-10-16T15:05:27;95580.72;;;20.53;34.47
5550;BME280;2798;42.716;23.256;2022-10-16T15:07:54;95586.09;;;20.51;34.56
5550;BME280;2798;42.716;23.256;2022-10-16T15:10:21;95590.53;;;20.50;34.33
5550;BME280;2798;42.716;23.256;2022-10-16T15:12:47;95583.41;;;20.43;34.62
5550;BME280;2798;42.716;23.256;2022-10-16T15:15:40;95585.38;;;20.41;34.63
5550;BME280;2798;42.716;23.256;2022-10-16T15:18:07;95595.16;;;20.38;34.47